Time;durP1;ratioP1;P1;durP2;ratioP2;P2;SDS_P1;SDS_P2;PMS_P1;PMS_P2;Temp;Humidity;BMP_temperature;BMP_pressure;BME280_temperature;BME280_humidity;BME280_pressure;Samples;Min_cycle;Max_cycle;Signal;HPM_P1;HPM_P2
2022/10/24 00:01:38;;;;;;;14.93;6.67;;;15.00;73.80;;;;;;5112712;27;20657;-83
2022/10/24 00:04:07;;;;;;;12.00;6.20;;;15.00;73.90;;;;;;5110046;28;20221;-83
2022/10/24 00:06:37;;;;;;;16.83;7.03;;;14.90;73.80;;;;;;5101100;28;20193;-84
2022/10/24 00:09:05;;;;;;;10.97;6.53;;;14.90;73.90;;;;;;5103416;27;20309;-84
2022/10/24 00:11:35;;;;;;;11.87;6.17;;;14.90;74.20;;;;;;5114051;27;20200;-84
2022/10/24 00:14:03;;;;;;;15.30;6.53;;;14.80;74.30;;;;;;5104465;27;20224;-83
2022/10/24 00:16:32;;;;;;;10.53;6.00;;;14.80;74.30;;;;;;5109848;28;20236;-84
2022/10/24 00:19:00;;;;;;;12.23;6.57;;;14.80;74.30;;;;;;5114348;27;20263;-84
2022/10/24 00:21:28;;;;;;;14.57;7.07;;;14.70;74.30;;;;;;5110095;27;20225;-84
2022/10/24 00:23:58;;;;;;;13.37;6.67;;;14.70;74.30;;;;;;5112419;27;20238;-85
2022/10/24 00:26:26;;;;;;;13.27;6.40;;;14.70;74.50;;;;;;5106278;27;20225;-82
2022/10/24 00:28:54;;;;;;;12.57;5.80;;;14.70;74.50;;;;;;5107735;27;20280;-84
2022/10/24 00:31:23;;;;;;;12.50;5.83;;;14.60;74.50;;;;;;5102136;28;20200;-84
2022/10/24 00:33:51;;;;;;;17.57;5.97;;;14.60;74.70;;;;;;5105825;28;20225;-83
2022/10/24 00:36:22;;;;;;;15.43;6.57;;;14.60;74.90;;;;;;5113818;28;20281;-83
2022/10/24 00:38:51;;;;;;;18.47;6.93;;;14.60;74.90;;;;;;5114432;27;20189;-84
2022/10/24 00:41:22;;;;;;;11.27;6.30;;;14.60;75.00;;;;;;5113063;27;20224;-83
2022/10/24 00:43:51;;;;;;;15.60;6.37;;;14.60;75.10;;;;;;5109697;28;20216;-84
2022/10/24 00:46:20;;;;;;;14.93;6.50;;;14.60;75.00;;;;;;5111091;28;20235;-84
2022/10/24 00:48:52;;;;;;;16.00;6.57;;;14.60;75.10;;;;;;5106097;28;20604;-83
2022/10/24 00:51:24;;;;;;;12.43;6.33;;;14.60;75.20;;;;;;5121150;28;20279;-84
2022/10/24 00:53:57;;;;;;;11.90;6.30;;;14.50;75.20;;;;;;5110668;28;20466;-84
2022/10/24 00:56:36;;;;;;;13.50;6.70;;;14.50;75.20;;;;;;5126223;27;20196;-83
2022/10/24 00:59:06;;;;;;;12.10;6.73;;;14.40;75.20;;;;;;5110388;27;20284;-84
2022/10/24 01:01:35;;;;;;;13.43;6.40;;;14.40;75.10;;;;;;5112454;27;20197;-83
2022/10/24 01:04:04;;;;;;;18.50;6.40;;;14.40;75.10;;;;;;5115880;27;20668;-84
2022/10/24 01:06:43;;;;;;;10.17;5.97;;;14.40;75.20;;;;;;5112105;27;20288;-82
2022/10/24 01:09:23;;;;;;;13.40;7.13;;;14.40;75.20;;;;;;5114486;27;20295;-83
2022/10/24 01:12:04;;;;;;;10.93;6.70;;;14.40;75.20;;;;;;5119861;27;20219;-82
2022/10/24 01:14:44;;;;;;;10.83;6.73;;;14.30;75.40;;;;;;5110852;27;20640;-84
2022/10/24 01:17:17;;;;;;;14.50;7.13;;;14.30;75.30;;;;;;5122169;27;20240;-84
2022/10/24 01:20:15;;;;;;;15.97;6.67;;;14.30;75.40;;;;;;5126755;27;20615;-83
2022/10/24 01:22:56;;;;;;;12.37;6.97;;;14.20;75.30;;;;;;5114346;28;20696;-84
2022/10/24 01:25:37;;;;;;;13.30;6.70;;;14.20;75.20;;;;;;5112283;27;20284;-82
2022/10/24 01:28:11;;;;;;;13.40;6.67;;;14.20;75.20;;;;;;5117589;27;20220;-83
2022/10/24 01:30:45;;;;;;;15.87;6.77;;;14.20;75.20;;;;;;5116819;27;20234;-84
2022/10/24 01:33:20;;;;;;;11.27;6.50;;;14.20;75.30;;;;;;5123553;27;20223;-84
2022/10/24 01:35:54;;;;;;;12.50;6.23;;;14.10;75.30;;;;;;5121757;27;20192;-83
2022/10/24 01:38:31;;;;;;;13.33;6.80;;;14.10;75.50;;;;;;5119369;27;20239;-83
2022/10/24 01:41:03;;;;;;;13.57;6.13;;;14.10;75.70;;;;;;5114631;27;20217;-78
2022/10/24 01:43:35;;;;;;;11.90;6.37;;;14.00;75.70;;;;;;5114592;27;20221;-82
2022/10/24 01:46:11;;;;;;;14.57;6.97;;;14.00;75.70;;;;;;5115081;27;20288;-83
2022/10/24 01:48:43;;;;;;;15.07;7.00;;;14.00;75.80;;;;;;5110560;27;20828;-84
2022/10/24 01:51:14;;;;;;;12.77;6.80;;;14.00;75.80;;;;;;5108874;27;20223;-84
2022/10/24 01:53:44;;;;;;;13.37;6.67;;;14.00;75.80;;;;;;5116861;27;20221;-83
2022/10/24 01:56:13;;;;;;;15.47;7.40;;;13.90;75.80;;;;;;5122245;27;20224;-82
2022/10/24 01:58:41;;;;;;;14.43;6.77;;;13.90;75.80;;;;;;5122357;27;20197;-82
2022/10/24 02:01:16;;;;;;;12.50;5.93;;;13.90;76.00;;;;;;5111009;27;20255;-83
2022/10/24 02:03:47;;;;;;;13.17;6.90;;;13.90;76.10;;;;;;5116778;27;20639;-83
2022/10/24 02:06:19;;;;;;;13.40;7.50;;;13.90;76.00;;;;;;5113610;27;20185;-83
2022/10/24 02:08:52;;;;;;;9.73;6.07;;;13.90;76.00;;;;;;5115337;27;20323;-83
2022/10/24 02:11:20;;;;;;;13.50;7.00;;;13.90;76.00;;;;;;5109540;27;20559;-82
2022/10/24 02:13:57;;;;;;;15.87;6.93;;;13.90;76.00;;;;;;5120775;27;20636;-83
2022/10/24 02:16:26;;;;;;;10.87;5.57;;;13.80;76.00;;;;;;5112777;27;20325;-83
2022/10/24 02:18:56;;;;;;;10.33;6.37;;;13.80;76.00;;;;;;5116490;27;20593;-83
2022/10/24 02:21:31;;;;;;;13.27;6.60;;;13.80;76.10;;;;;;5119567;27;20192;-82
2022/10/24 02:24:05;;;;;;;13.23;6.80;;;13.80;76.10;;;;;;5114339;27;20275;-83
2022/10/24 02:26:42;;;;;;;12.73;6.00;;;13.80;76.10;;;;;;5114944;27;20571;-82
2022/10/24 02:29:14;;;;;;;10.60;6.13;;;13.80;76.10;;;;;;5112035;27;20197;-84
2022/10/24 02:31:50;;;;;;;11.47;6.57;;;13.80;76.10;;;;;;5107200;28;20194;-81
2022/10/24 02:34:19;;;;;;;10.70;6.13;;;13.80;76.20;;;;;;5110046;27;20620;-83
2022/10/24 02:36:51;;;;;;;12.43;6.40;;;13.80;76.40;;;;;;5123132;27;20722;-81
2022/10/24 02:39:20;;;;;;;11.00;6.27;;;13.80;76.40;;;;;;5111503;27;20279;-83
2022/10/24 02:41:51;;;;;;;12.50;6.67;;;13.80;76.50;;;;;;5118531;27;20254;-82
2022/10/24 02:44:20;;;;;;;11.27;6.47;;;13.80;76.50;;;;;;5112131;27;20201;-82
2022/10/24 02:46:52;;;;;;;11.83;6.37;;;13.70;77.00;;;;;;5115281;27;20665;-83
2022/10/24 02:49:21;;;;;;;12.73;6.40;;;13.70;76.80;;;;;;5108987;27;20236;-82
2022/10/24 02:51:50;;;;;;;12.00;7.17;;;13.70;77.20;;;;;;5113934;27;20280;-83
2022/10/24 02:54:19;;;;;;;13.83;6.23;;;13.70;77.00;;;;;;5112139;27;20270;-84
2022/10/24 02:56:53;;;;;;;10.87;7.17;;;13.70;77.20;;;;;;5110523;27;20288;-80
2022/10/24 02:59:22;;;;;;;13.40;6.47;;;13.60;77.20;;;;;;5111209;27;20189;-81
2022/10/24 03:01:51;;;;;;;14.37;6.87;;;13.60;77.20;;;;;;5114256;27;20193;-84
2022/10/24 03:04:20;;;;;;;13.03;6.60;;;13.60;77.20;;;;;;5116204;27;20863;-82
2022/10/24 03:06:48;;;;;;;13.63;7.00;;;13.60;77.30;;;;;;5107770;27;20197;-82
2022/10/24 03:09:16;;;;;;;11.90;6.87;;;13.60;77.20;;;;;;5114773;27;20224;-86
2022/10/24 03:11:45;;;;;;;12.53;6.80;;;13.60;77.20;;;;;;5116603;27;20288;-85
2022/10/24 03:14:13;;;;;;;9.87;6.40;;;13.50;77.20;;;;;;5116598;27;20275;-81
2022/10/24 03:16:41;;;;;;;12.63;6.80;;;13.50;77.30;;;;;;5118148;27;20220;-85
2022/10/24 03:19:11;;;;;;;12.60;6.97;;;13.50;77.30;;;;;;5111331;27;20229;-80
2022/10/24 03:21:40;;;;;;;12.03;6.73;;;13.50;77.30;;;;;;5119411;27;20246;-86
2022/10/24 03:24:08;;;;;;;12.83;5.73;;;13.50;77.40;;;;;;5106163;27;20251;-85
2022/10/24 03:26:37;;;;;;;10.73;5.70;;;13.50;77.40;;;;;;5109937;27;20197;-85
2022/10/24 03:29:05;;;;;;;10.03;5.73;;;13.60;77.60;;;;;;5113785;27;20225;-85
2022/10/24 03:31:33;;;;;;;9.03;5.00;;;13.60;77.60;;;;;;5123937;27;20255;-86
2022/10/24 03:34:02;;;;;;;10.27;5.43;;;13.60;77.60;;;;;;5113245;27;20250;-86
2022/10/24 03:36:32;;;;;;;10.13;5.53;;;13.60;77.60;;;;;;5114031;27;20190;-85
2022/10/24 03:39:00;;;;;;;10.13;5.00;;;13.70;77.90;;;;;;5112565;27;20304;-85
2022/10/24 03:41:28;;;;;;;11.03;5.03;;;13.70;77.80;;;;;;5116351;27;20254;-85
2022/10/24 03:43:56;;;;;;;10.13;6.18;;;13.70;77.90;;;;;;5115002;27;20462;-85
2022/10/24 03:46:27;;;;;;;10.93;5.60;;;13.70;78.30;;;;;;5120824;27;20228;-86
2022/10/24 03:48:56;;;;;;;13.27;6.10;;;13.70;78.30;;;;;;5110256;27;20598;-86
2022/10/24 03:51:24;;;;;;;9.77;5.97;;;13.70;78.30;;;;;;5120955;27;20220;-84
2022/10/24 03:53:54;;;;;;;10.67;6.13;;;13.70;78.20;;;;;;5109816;27;20233;-83
2022/10/24 03:56:22;;;;;;;10.80;5.77;;;13.70;78.10;;;;;;5122226;27;20223;-80
2022/10/24 03:58:50;;;;;;;10.63;5.67;;;13.70;78.10;;;;;;5114399;27;20228;-86
2022/10/24 04:01:19;;;;;;;10.50;5.53;;;13.70;78.00;;;;;;5116263;27;20201;-86
2022/10/24 04:03:47;;;;;;;11.00;5.30;;;13.70;77.90;;;;;;5114882;27;20197;-83
2022/10/24 04:06:16;;;;;;;12.10;5.67;;;13.70;77.80;;;;;;5108273;27;20641;-84
2022/10/24 04:08:44;;;;;;;12.37;6.23;;;13.70;77.70;;;;;;5112485;27;20471;-84
2022/10/24 04:11:13;;;;;;;10.30;5.97;;;13.70;77.90;;;;;;5117791;27;20295;-85
2022/10/24 04:13:42;;;;;;;12.97;5.90;;;13.70;77.90;;;;;;5108317;27;20236;-82
2022/10/24 04:16:10;;;;;;;11.03;5.23;;;13.70;77.90;;;;;;5119676;27;20261;-84
2022/10/24 04:18:38;;;;;;;10.07;6.03;;;13.60;77.80;;;;;;5114010;27;20229;-84
2022/10/24 04:21:06;;;;;;;11.15;6.20;;;13.60;77.80;;;;;;5114667;27;20557;-84
2022/10/24 04:23:39;;;;;;;11.67;6.17;;;13.60;77.90;;;;;;5107218;27;20261;-82
2022/10/24 04:26:08;;;;;;;10.47;5.50;;;13.50;77.80;;;;;;5098229;27;20221;-85
2022/10/24 04:28:38;;;;;;;9.83;5.33;;;13.50;77.70;;;;;;5117392;27;20240;-85
2022/10/24 04:31:06;;;;;;;8.40;5.63;;;13.50;77.70;;;;;;5109512;28;20262;-84
2022/10/24 04:33:35;;;;;;;11.00;5.90;;;13.50;77.80;;;;;;5113327;27;20239;-85
2022/10/24 04:36:04;;;;;;;9.87;5.50;;;13.50;77.90;;;;;;5110376;28;20246;-85
2022/10/24 04:38:32;;;;;;;11.47;5.90;;;13.50;77.80;;;;;;5116134;27;20279;-84
2022/10/24 04:41:01;;;;;;;10.17;5.90;;;13.50;78.20;;;;;;5116652;27;20193;-85
2022/10/24 04:43:30;;;;;;;11.80;6.20;;;13.40;78.10;;;;;;5118213;27;20611;-84
2022/10/24 04:46:01;;;;;;;11.03;5.97;;;13.40;78.10;;;;;;5123774;27;20235;-84
2022/10/24 04:48:29;;;;;;;13.90;5.73;;;13.40;78.10;;;;;;5109657;27;20197;-84
2022/10/24 04:50:57;;;;;;;11.47;6.10;;;13.40;78.20;;;;;;5111836;28;20335;-83
2022/10/24 04:53:26;;;;;;;10.77;6.33;;;13.40;78.30;;;;;;5114783;28;20262;-84
2022/10/24 04:55:54;;;;;;;11.40;6.40;;;13.30;78.30;;;;;;5102221;28;20232;-84
2022/10/24 04:58:22;;;;;;;9.60;5.80;;;13.30;78.20;;;;;;5109754;28;20225;-84
2022/10/24 05:00:50;;;;;;;9.70;5.50;;;13.30;78.40;;;;;;5108350;28;20216;-83
2022/10/24 05:03:22;;;;;;;10.80;6.27;;;13.30;78.50;;;;;;5108385;28;20200;-83
2022/10/24 05:05:50;;;;;;;11.87;5.40;;;13.30;78.60;;;;;;5105296;28;20993;-85
2022/10/24 05:08:18;;;;;;;7.37;5.60;;;13.30;78.70;;;;;;5108383;28;20288;-84
2022/10/24 05:10:47;;;;;;;9.73;5.40;;;13.30;78.70;;;;;;5110755;28;20270;-84
2022/10/24 05:13:15;;;;;;;13.17;5.93;;;13.30;78.80;;;;;;5105363;28;20228;-84
2022/10/24 05:15:43;;;;;;;10.83;5.97;;;13.30;78.80;;;;;;5103986;28;20612;-84
2022/10/24 05:18:12;;;;;;;12.47;6.37;;;13.30;78.90;;;;;;5106656;28;20224;-84
2022/10/24 05:20:42;;;;;;;13.43;7.60;;;13.30;79.00;;;;;;5107492;28;20189;-81
2022/10/24 05:23:10;;;;;;;13.73;7.50;;;13.30;78.90;;;;;;5100422;28;20634;-84
2022/10/24 05:25:38;;;;;;;16.77;9.43;;;13.40;79.00;;;;;;5109948;28;20211;-84
2022/10/24 05:28:07;;;;;;;12.40;7.33;;;13.40;79.30;;;;;;5106832;28;20224;-85
2022/10/24 05:30:35;;;;;;;12.13;6.57;;;13.40;79.10;;;;;;5109173;28;20232;-84
2022/10/24 05:33:03;;;;;;;14.23;6.37;;;13.50;79.30;;;;;;5108421;28;20258;-84
2022/10/24 05:35:31;;;;;;;13.63;6.13;;;13.50;79.40;;;;;;5109326;28;20228;-82
2022/10/24 05:38:01;;;;;;;10.37;5.43;;;13.60;79.50;;;;;;5103819;28;20340;-85
2022/10/24 05:40:30;;;;;;;9.90;5.60;;;13.60;79.40;;;;;;5109367;28;20229;-85
2022/10/24 05:42:58;;;;;;;10.83;5.87;;;13.60;79.40;;;;;;5112040;28;20656;-85
2022/10/24 05:45:27;;;;;;;10.70;5.63;;;13.70;79.50;;;;;;5113799;28;20240;-85
2022/10/24 05:47:55;;;;;;;10.73;5.60;;;13.70;79.50;;;;;;5112930;28;20227;-83
2022/10/24 05:50:23;;;;;;;12.63;5.27;;;13.70;79.70;;;;;;5111565;28;20636;-84
2022/10/24 05:52:52;;;;;;;13.50;6.97;;;13.70;79.70;;;;;;5113408;28;20793;-83
2022/10/24 05:55:21;;;;;;;13.23;6.13;;;13.80;80.70;;;;;;5114525;28;20276;-84
2022/10/24 05:57:49;;;;;;;9.33;5.83;;;13.80;80.50;;;;;;5108996;28;20235;-84
2022/10/24 06:00:19;;;;;;;11.47;5.60;;;13.80;80.40;;;;;;5112735;28;20193;-83
2022/10/24 06:02:47;;;;;;;10.70;6.07;;;13.80;80.20;;;;;;5115061;28;20201;-83
2022/10/24 06:05:15;;;;;;;14.97;5.37;;;13.90;80.20;;;;;;5114246;28;20642;-84
2022/10/24 06:07:44;;;;;;;12.20;5.90;;;13.90;80.10;;;;;;5113922;28;20221;-84
2022/10/24 06:10:14;;;;;;;9.90;5.70;;;13.90;80.00;;;;;;5111150;28;20280;-84
2022/10/24 06:12:43;;;;;;;13.10;6.10;;;14.00;80.00;;;;;;5105607;28;20357;-84
2022/10/24 06:15:13;;;;;;;19.67;5.67;;;14.10;80.10;;;;;;5116025;28;20645;-83
2022/10/24 06:17:41;;;;;;;10.37;5.80;;;14.10;80.00;;;;;;5113963;28;20193;-84
2022/10/24 06:20:10;;;;;;;15.23;6.43;;;14.10;79.90;;;;;;5111914;28;20471;-84
2022/10/24 06:22:39;;;;;;;12.13;5.90;;;14.20;80.60;;;;;;5113689;28;20197;-84
2022/10/24 06:25:07;;;;;;;9.83;5.57;;;14.30;80.50;;;;;;5107515;28;20228;-83
2022/10/24 06:27:36;;;;;;;11.03;5.77;;;14.30;80.40;;;;;;5112309;28;20226;-83
2022/10/24 06:30:15;;;;;;;14.80;5.83;;;14.40;80.40;;;;;;5109563;28;20244;-83
2022/10/24 06:32:43;;;;;;;14.20;6.27;;;14.50;80.30;;;;;;5104671;27;20219;-85
2022/10/24 06:35:14;;;;;;;13.20;6.00;;;14.60;80.20;;;;;;5113898;28;20211;-84
2022/10/24 06:37:43;;;;;;;14.63;6.53;;;14.70;80.20;;;;;;5112002;28;20193;-84
2022/10/24 06:40:15;;;;;;;14.50;6.67;;;14.80;80.10;;;;;;5113708;28;20189;-82
2022/10/24 06:42:44;;;;;;;11.47;6.33;;;14.80;80.00;;;;;;5112672;28;20189;-83
2022/10/24 06:45:14;;;;;;;15.00;6.57;;;14.90;80.00;;;;;;5115092;28;20236;-82
2022/10/24 06:47:42;;;;;;;9.83;6.70;;;15.00;80.00;;;;;;5112331;28;20272;-81
2022/10/24 06:50:11;;;;;;;11.53;6.73;;;15.10;79.80;;;;;;5114898;28;20611;-82
2022/10/24 06:52:39;;;;;;;14.00;7.10;;;15.20;79.70;;;;;;5112950;28;20259;-83
2022/10/24 06:55:09;;;;;;;11.77;6.80;;;15.30;79.80;;;;;;5106637;28;20262;-82
2022/10/24 06:57:37;;;;;;;12.40;6.13;;;15.40;79.70;;;;;;5113113;28;20220;-82
2022/10/24 07:00:07;;;;;;;10.10;6.00;;;15.50;79.70;;;;;;5114746;28;20254;-81
2022/10/24 07:02:37;;;;;;;11.27;6.13;;;15.60;79.50;;;;;;5108281;28;20186;-82
2022/10/24 07:05:08;;;;;;;9.93;6.00;;;15.70;79.50;;;;;;5108100;28;20657;-83
2022/10/24 07:07:36;;;;;;;16.00;6.30;;;15.70;79.30;;;;;;5108292;28;20189;-82
2022/10/24 07:10:05;;;;;;;12.90;6.40;;;15.80;79.20;;;;;;5107090;28;20228;-81
2022/10/24 07:12:34;;;;;;;12.37;6.20;;;15.90;79.10;;;;;;5112241;28;20217;-83
2022/10/24 07:15:03;;;;;;;12.17;6.10;;;15.90;78.80;;;;;;5114480;28;20269;-84
2022/10/24 07:17:31;;;;;;;13.57;7.32;;;16.00;78.80;;;;;;5112779;28;20437;-82
2022/10/24 07:20:01;;;;;;;13.33;6.43;;;16.10;78.60;;;;;;5107180;28;20218;-83
2022/10/24 07:22:29;;;;;;;12.03;6.00;;;16.20;78.60;;;;;;5111193;28;20232;-85
2022/10/24 07:25:00;;;;;;;14.83;6.97;;;16.30;78.50;;;;;;5105836;28;20280;-85
2022/10/24 07:27:28;;;;;;;11.50;5.93;;;16.30;79.10;;;;;;5110338;28;20228;-85
2022/10/24 07:30:11;;;;;;;11.07;6.73;;;16.30;78.10;;;;;;5106858;28;20236;-86
2022/10/24 07:32:39;;;;;;;9.17;5.63;;;16.40;78.00;;;;;;5111859;28;20224;-84
2022/10/24 07:35:12;;;;;;;13.30;5.73;;;16.40;77.80;;;;;;5105226;28;20200;-83
2022/10/24 07:37:40;;;;;;;10.93;6.87;;;16.50;77.70;;;;;;5111860;28;20216;-79
2022/10/24 07:40:11;;;;;;;13.00;6.77;;;16.60;77.60;;;;;;5108976;28;20245;-84
2022/10/24 07:42:47;;;;;;;14.40;7.07;;;16.70;77.60;;;;;;5112073;28;20559;-83
2022/10/24 07:45:17;;;;;;;14.83;6.53;;;16.80;77.50;;;;;;5113022;28;20231;-84
2022/10/24 07:47:45;;;;;;;11.37;6.50;;;16.80;77.40;;;;;;5110821;28;20201;-82
2022/10/24 07:50:16;;;;;;;9.60;5.83;;;16.90;77.20;;;;;;5110990;28;20658;-82
2022/10/24 07:52:44;;;;;;;11.30;6.50;;;17.00;77.10;;;;;;5112436;28;20209;-83
2022/10/24 07:55:12;;;;;;;12.30;5.47;;;17.10;76.60;;;;;;5113217;28;20286;-83
2022/10/24 07:57:40;;;;;;;14.83;7.17;;;17.10;76.50;;;;;;5112915;28;20607;-84
2022/10/24 08:00:10;;;;;;;10.50;5.87;;;17.20;76.40;;;;;;5107785;28;20207;-83
2022/10/24 08:02:39;;;;;;;8.97;5.60;;;17.30;76.30;;;;;;5111244;28;20285;-83
2022/10/24 08:05:09;;;;;;;11.43;6.63;;;17.30;76.10;;;;;;5111646;28;20197;-82
2022/10/24 08:07:39;;;;;;;12.47;6.50;;;17.40;76.10;;;;;;5111681;28;20675;-82
2022/10/24 08:10:11;;;;;;;12.83;6.70;;;17.50;75.80;;;;;;5111002;28;20220;-81
2022/10/24 08:12:39;;;;;;;14.53;7.03;;;17.60;75.80;;;;;;5111680;28;20220;-84
2022/10/24 08:15:09;;;;;;;17.07;7.03;;;17.60;75.50;;;;;;5112792;28;20205;-84
2022/10/24 08:17:37;;;;;;;12.77;7.23;;;17.70;75.50;;;;;;5112954;28;20219;-83
2022/10/24 08:20:11;;;;;;;15.53;6.63;;;17.80;75.40;;;;;;5100805;28;20259;-82
2022/10/24 08:22:41;;;;;;;11.67;7.13;;;17.90;75.30;;;;;;5111874;28;20246;-83
2022/10/24 08:25:10;;;;;;;12.60;6.67;;;17.90;75.10;;;;;;5110390;28;20212;-84
2022/10/24 08:27:38;;;;;;;13.93;6.80;;;18.00;75.10;;;;;;5112182;28;20198;-81
2022/10/24 08:30:07;;;;;;;11.13;7.07;;;18.10;75.00;;;;;;5112607;28;20574;-82
2022/10/24 08:32:37;;;;;;;14.53;7.10;;;18.20;74.70;;;;;;5109801;28;20307;-83
2022/10/24 08:35:05;;;;;;;16.03;7.33;;;18.30;74.60;;;;;;5103713;28;20691;-82
2022/10/24 08:37:36;;;;;;;16.47;7.07;;;18.30;74.40;;;;;;5110778;28;20205;-84
2022/10/24 08:40:14;;;;;;;14.53;6.80;;;18.40;74.40;;;;;;5110947;28;20775;-83
2022/10/24 08:42:43;;;;;;;12.20;7.40;;;18.50;74.30;;;;;;5110511;28;20280;-84
2022/10/24 08:45:16;;;;;;;18.33;6.67;;;18.60;74.40;;;;;;5102367;28;20207;-82
2022/10/24 08:47:49;;;;;;;13.90;8.00;;;18.70;74.30;;;;;;5112265;28;20256;-83
2022/10/24 08:50:23;;;;;;;14.03;8.27;;;18.80;74.40;;;;;;5109701;28;20273;-85
2022/10/24 08:52:58;;;;;;;15.80;7.30;;;18.80;74.20;;;;;;5107657;28;20296;-83
2022/10/24 08:55:32;;;;;;;14.10;6.77;;;18.90;74.20;;;;;;5109671;28;20210;-86
2022/10/24 08:58:21;;;;;;;15.53;7.50;;;19.00;74.10;;;;;;5093111;28;20211;-85
2022/10/24 09:00:52;;;;;;;15.00;7.07;;;19.10;74.10;;;;;;5102880;28;20799;-83
2022/10/24 09:03:27;;;;;;;11.80;6.57;;;19.20;73.90;;;;;;5107139;28;20197;-85
2022/10/24 09:06:19;;;;;;;12.90;6.73;;;19.20;73.50;;;;;;5107978;28;20535;-89
2022/10/24 09:08:52;;;;;;;14.97;6.80;;;19.30;73.50;;;;;;5098470;28;20200;-82
2022/10/24 09:11:29;;;;;;;11.43;6.50;;;19.40;73.50;;;;;;5111558;28;20236;-87
2022/10/24 09:14:00;;;;;;;9.63;6.20;;;19.50;73.20;;;;;;5108990;28;20693;-79
2022/10/24 09:16:29;;;;;;;12.00;6.13;;;19.50;73.10;;;;;;5109608;28;20247;-86
2022/10/24 09:18:58;;;;;;;10.17;5.90;;;19.60;73.10;;;;;;5113580;28;20231;-83
2022/10/24 09:21:27;;;;;;;10.57;5.67;;;19.70;73.10;;;;;;5111153;28;20229;-80
2022/10/24 09:23:55;;;;;;;8.73;5.30;;;19.80;73.00;;;;;;5113035;28;20273;-80
2022/10/24 09:26:30;;;;;;;18.67;6.63;;;19.80;72.50;;;;;;5115663;28;20807;-84
2022/10/24 09:28:59;;;;;;;11.82;5.95;;;19.90;72.30;;;;;;5112186;28;20441;-86
2022/10/24 09:31:28;;;;;;;11.93;5.70;;;20.00;72.40;;;;;;5111748;28;20621;-78
2022/10/24 09:33:59;;;;;;;9.63;5.33;;;20.10;72.20;;;;;;5111496;28;20772;-87
2022/10/24 09:36:30;;;;;;;12.77;5.38;;;20.10;72.10;;;;;;5105021;28;20645;-82
2022/10/24 09:39:23;;;;;;;11.50;4.70;;;20.10;71.90;;;;;;5111942;28;20603;-81
2022/10/24 09:41:53;;;;;;;11.13;5.13;;;20.20;71.70;;;;;;5109770;28;20279;-83
2022/10/24 09:44:32;;;;;;;9.10;5.15;;;20.30;71.60;;;;;;5105196;28;20221;-85
2022/10/24 09:47:05;;;;;;;8.95;5.07;;;20.30;71.50;;;;;;5112286;28;20284;-83
2022/10/24 09:49:39;;;;;;;11.00;5.68;;;20.40;71.20;;;;;;5109116;28;20719;-82
2022/10/24 09:52:43;;;;;;;10.52;5.00;;;20.40;71.10;;;;;;5112872;28;20200;-85
2022/10/24 09:55:18;;;;;;;10.48;5.40;;;20.50;71.00;;;;;;5096499;28;22210;-82
2022/10/24 09:57:52;;;;;;;10.60;5.00;;;20.60;71.00;;;;;;5107477;28;20201;-85
2022/10/24 10:00:26;;;;;;;10.90;6.15;;;20.60;70.80;;;;;;5112775;28;20217;-82
2022/10/24 10:02:58;;;;;;;12.95;5.80;;;20.60;70.40;;;;;;5110206;28;20228;-83
2022/10/24 10:05:27;;;;;;;8.25;5.22;;;20.70;70.20;;;;;;5113511;28;20197;-82
2022/10/24 10:08:09;;;;;;;17.73;5.93;;;20.80;70.20;;;;;;5109360;28;20193;-85
2022/10/24 10:10:37;;;;;;;10.05;5.47;;;20.80;70.10;;;;;;5111396;28;20190;-87
2022/10/24 10:13:22;;;;;;;11.73;5.55;;;20.90;70.10;;;;;;5113819;28;20284;-85
2022/10/24 10:15:53;;;;;;;12.23;5.10;;;21.00;69.40;;;;;;5107075;28;20216;-83
2022/10/24 10:18:32;;;;;;;10.18;5.03;;;21.00;69.40;;;;;;5109180;28;20185;-82
2022/10/24 10:21:18;;;;;;;8.48;4.38;;;21.10;69.40;;;;;;5108722;28;20718;-85
2022/10/24 10:23:49;;;;;;;7.20;4.03;;;21.20;69.00;;;;;;5112488;28;20196;-83
2022/10/24 10:26:27;;;;;;;8.30;3.92;;;21.20;68.80;;;;;;5108960;28;21619;-80
2022/10/24 10:29:00;;;;;;;12.93;4.88;;;21.30;68.50;;;;;;5113446;28;20200;-84
2022/10/24 10:31:42;;;;;;;12.23;4.88;;;21.30;68.30;;;;;;5109104;28;20258;-81
2022/10/24 10:34:30;;;;;;;6.97;4.15;;;21.40;68.00;;;;;;5114536;28;20201;-81
2022/10/24 10:37:26;;;;;;;11.70;4.40;;;21.50;68.00;;;;;;5103558;28;20737;-82
2022/10/24 10:40:08;;;;;;;9.93;4.10;;;21.50;67.50;;;;;;5112882;28;20234;-82
2022/10/24 10:42:44;;;;;;;10.68;4.28;;;21.60;67.40;;;;;;5109582;28;20227;-83
2022/10/24 10:45:25;;;;;;;12.38;4.55;;;21.60;67.20;;;;;;5111113;28;20224;-84
2022/10/24 10:48:07;;;;;;;10.77;3.28;;;21.70;67.10;;;;;;5112234;28;20193;-81
2022/10/24 10:50:38;;;;;;;6.00;3.20;;;21.70;66.50;;;;;;5112300;27;20227;-83
2022/10/24 10:53:24;;;;;;;8.05;3.15;;;21.80;65.70;;;;;;5111018;28;20224;-80
2022/10/24 10:56:00;;;;;;;6.45;3.00;;;21.90;65.80;;;;;;5103944;28;20654;-83
2022/10/24 10:58:37;;;;;;;10.38;3.65;;;21.90;65.90;;;;;;5108127;28;20221;-82
2022/10/24 11:01:16;;;;;;;10.45;3.60;;;22.00;65.50;;;;;;5110850;28;20728;-84
2022/10/24 11:04:03;;;;;;;4.93;3.25;;;22.00;65.20;;;;;;5107154;28;20185;-84
2022/10/24 11:06:46;;;;;;;8.35;3.53;;;22.10;65.20;;;;;;5105191;28;20198;-84
2022/10/24 11:09:28;;;;;;;9.95;2.53;;;22.10;64.60;;;;;;5112540;28;20644;-82
2022/10/24 11:12:11;;;;;;;6.55;2.80;;;22.10;64.00;;;;;;5110059;28;20549;-82
2022/10/24 11:14:43;;;;;;;7.97;2.55;;;22.20;63.80;;;;;;5109567;28;20284;-82
2022/10/24 11:17:17;;;;;;;7.80;2.78;;;22.30;63.80;;;;;;5108855;28;20272;-85
2022/10/24 11:20:06;;;;;;;7.47;3.17;;;22.30;63.90;;;;;;5110768;28;20242;-82
2022/10/24 11:22:40;;;;;;;12.10;3.03;;;22.40;63.00;;;;;;5110359;28;20208;-76
2022/10/24 11:25:21;;;;;;;9.75;2.95;;;22.40;62.90;;;;;;5106997;28;20766;-84
2022/10/24 11:27:58;;;;;;;5.43;2.33;;;22.50;61.70;;;;;;5104909;28;20596;-81
2022/10/24 11:30:42;;;;;;;5.60;2.10;;;22.50;61.10;;;;;;5103262;28;20228;-86
2022/10/24 11:33:17;;;;;;;3.67;2.15;;;22.50;61.60;;;;;;5105734;28;20239;-79
2022/10/24 11:36:08;;;;;;;7.70;2.30;;;22.60;61.80;;;;;;5106008;28;20292;-76
2022/10/24 11:38:42;;;;;;;4.13;1.80;;;22.60;61.10;;;;;;5104613;28;20188;-82
2022/10/24 11:45:18;;;;;;;6.32;2.70;;;22.80;61.00;;;;;;5093145;28;20668;-77
2022/10/24 11:47:53;;;;;;;7.00;2.40;;;22.80;59.70;;;;;;5112181;28;20253;-75
2022/10/24 11:50:28;;;;;;;7.00;2.47;;;22.80;60.00;;;;;;5111256;28;20246;-76
2022/10/24 11:53:04;;;;;;;4.18;2.30;;;22.90;60.00;;;;;;5111920;28;20726;-76
2022/10/24 11:55:37;;;;;;;8.77;2.22;;;22.90;59.40;;;;;;5063808;28;20244;-77
2022/10/24 11:58:12;;;;;;;4.40;2.30;;;22.90;58.50;;;;;;5070188;28;20655;-76
2022/10/24 12:01:05;;;;;;;8.10;2.08;;;23.00;58.50;;;;;;5071140;28;21021;-75
2022/10/24 12:04:02;;;;;;;9.48;2.50;;;23.00;58.30;;;;;;5069350;28;20663;-76
2022/10/24 12:06:49;;;;;;;7.82;2.55;;;23.00;58.70;;;;;;5051287;28;20331;-76
2022/10/24 12:09:45;;;;;;;6.75;2.53;;;23.10;58.40;;;;;;5068921;28;20206;-75
2022/10/24 12:12:27;;;;;;;5.05;2.28;;;23.10;58.30;;;;;;5070087;28;20655;-76
2022/10/24 12:15:09;;;;;;;3.38;1.85;;;23.10;58.20;;;;;;5070695;28;20873;-81
2022/10/24 12:18:08;;;;;;;11.32;3.00;;;23.20;58.50;;;;;;5061362;28;20194;-77
2022/10/24 12:20:39;;;;;;;8.23;2.35;;;23.20;58.40;;;;;;5069584;28;20286;-76
2022/10/24 12:23:18;;;;;;;4.18;2.05;;;23.20;58.50;;;;;;5069324;28;20252;-77
2022/10/24 12:25:51;;;;;;;5.25;1.83;;;23.30;57.60;;;;;;5068023;28;20217;-76
2022/10/24 12:28:22;;;;;;;7.70;2.05;;;23.30;57.60;;;;;;5070275;28;20199;-77
2022/10/24 12:31:08;;;;;;;4.30;1.90;;;23.30;57.50;;;;;;5041330;28;20200;-76
2022/10/24 12:33:37;;;;;;;5.22;2.38;;;23.40;57.60;;;;;;5043082;28;20199;-77
2022/10/24 12:36:05;;;;;;;4.82;1.67;;;23.40;57.20;;;;;;5045553;28;20322;-76
2022/10/24 12:39:08;;;;;;;3.88;2.15;;;23.40;57.30;;;;;;5046464;28;20656;-76
2022/10/24 12:41:44;;;;;;;6.32;1.90;;;23.50;57.10;;;;;;5044498;28;20226;-76
2022/10/24 12:44:37;;;;;;;4.63;1.88;;;23.50;56.50;;;;;;5042093;28;20258;-78
2022/10/24 12:47:32;;;;;;;3.97;2.28;;;23.50;56.70;;;;;;5048341;28;20613;-77
2022/10/24 12:50:39;;;;;;;7.57;2.17;;;23.60;56.70;;;;;;5042591;28;20234;-77
2022/10/24 12:53:29;;;;;;;3.75;2.30;;;23.60;56.00;;;;;;5047226;28;20206;-76
2022/10/24 12:56:14;;;;;;;5.65;2.25;;;23.60;55.80;;;;;;5087142;28;20214;-76
2022/10/24 12:58:58;;;;;;;4.95;2.30;;;23.60;56.00;;;;;;5085981;28;20270;-76
2022/10/24 13:01:32;;;;;;;5.32;2.28;;;23.70;56.20;;;;;;5081333;28;20941;-77
2022/10/24 13:04:27;;;;;;;4.57;2.40;;;23.70;56.50;;;;;;5078440;28;20199;-76
2022/10/24 13:07:40;;;;;;;5.75;2.10;;;23.70;56.00;;;;;;5085376;28;20197;-76
2022/10/24 13:10:44;;;;;;;5.57;2.40;;;23.80;56.10;;;;;;5066412;28;20205;-76
2022/10/24 13:13:43;;;;;;;5.20;1.92;;;23.80;56.00;;;;;;5077553;28;20206;-77
2022/10/24 13:16:30;;;;;;;3.67;2.25;;;23.80;56.20;;;;;;5078361;28;20282;-76